sensor_id;sensor_type;location;lat;lon;timestamp;P1;durP1;ratioP1;P2;durP2;ratioP2
19664;SDS011;9980;51.020;7.772;2023-06-14T00:02:10;6.53;;;5.83;;
19664;SDS011;9980;51.020;7.772;2023-06-14T00:04:37;7.83;;;5.90;;
19664;SDS011;9980;51.020;7.772;2023-06-14T00:07:05;7.00;;;6.40;;
19664;SDS011;9980;51.020;7.772;2023-06-14T00:09:37;7.77;;;6.83;;
19664;SDS011;9980;51.020;7.772;2023-06-14T00:12:04;7.60;;;6.90;;
19664;SDS011;9980;51.020;7.772;2023-06-14T00:14:33;10.90;;;7.50;;
19664;SDS011;9980;51.020;7.772;2023-06-14T00:16:59;7.97;;;7.17;;
19664;SDS011;9980;51.020;7.772;2023-06-14T00:19:27;7.40;;;6.73;;
19664;SDS011;9980;51.020;7.772;2023-06-14T00:21:55;6.40;;;5.90;;
19664;SDS011;9980;51.020;7.772;2023-06-14T00:24:23;8.87;;;6.90;;
19664;SDS011;9980;51.020;7.772;2023-06-14T00:26:50;7.07;;;6.47;;
19664;SDS011;9980;51.020;7.772;2023-06-14T00:29:17;8.37;;;6.73;;
19664;SDS011;9980;51.020;7.772;2023-06-14T00:31:44;6.10;;;5.23;;
19664;SDS011;9980;51.020;7.772;2023-06-14T00:34:11;6.17;;;5.67;;
19664;SDS011;9980;51.020;7.772;2023-06-14T00:36:40;7.63;;;6.50;;
19664;SDS011;9980;51.020;7.772;2023-06-14T00:39:13;7.93;;;6.50;;
19664;SDS011;9980;51.020;7.772;2023-06-14T00:41:40;7.80;;;7.07;;
19664;SDS011;9980;51.020;7.772;2023-06-14T00:44:06;8.40;;;7.43;;
19664;SDS011;9980;51.020;7.772;2023-06-14T00:46:33;7.37;;;6.70;;
19664;SDS011;9980;51.020;7.772;2023-06-14T00:49:00;8.13;;;7.50;;
19664;SDS011;9980;51.020;7.772;2023-06-14T00:51:28;8.63;;;7.00;;
19664;SDS011;9980;51.020;7.772;2023-06-14T00:53:55;7.33;;;6.60;;
19664;SDS011;9980;51.020;7.772;2023-06-14T00:56:22;8.63;;;6.70;;
19664;SDS011;9980;51.020;7.772;2023-06-14T00:58:50;6.73;;;6.17;;
19664;SDS011;9980;51.020;7.772;2023-06-14T01:01:17;7.10;;;6.50;;
19664;SDS011;9980;51.020;7.772;2023-06-14T01:03:44;7.93;;;7.23;;
19664;SDS011;9980;51.020;7.772;2023-06-14T01:06:18;7.10;;;6.40;;
19664;SDS011;9980;51.020;7.772;2023-06-14T01:09:32;7.70;;;7.00;;
19664;SDS011;9980;51.020;7.772;2023-06-14T01:12:14;7.07;;;6.37;;
19664;SDS011;9980;51.020;7.772;2023-06-14T01:14:55;7.53;;;6.87;;
19664;SDS011;9980;51.020;7.772;2023-06-14T01:17:25;8.73;;;8.03;;
19664;SDS011;9980;51.020;7.772;2023-06-14T01:20:01;7.73;;;7.03;;
19664;SDS011;9980;51.020;7.772;2023-06-14T01:22:29;8.10;;;6.77;;
19664;SDS011;9980;51.020;7.772;2023-06-14T01:24:57;6.50;;;5.90;;
19664;SDS011;9980;51.020;7.772;2023-06-14T01:27:24;6.53;;;6.00;;
19664;SDS011;9980;51.020;7.772;2023-06-14T01:29:58;6.47;;;5.90;;
19664;SDS011;9980;51.020;7.772;2023-06-14T01:32:31;7.10;;;5.30;;
19664;SDS011;9980;51.020;7.772;2023-06-14T01:35:00;6.13;;;5.53;;
19664;SDS011;9980;51.020;7.772;2023-06-14T01:37:27;4.80;;;4.40;;
19664;SDS011;9980;51.020;7.772;2023-06-14T01:39:55;5.10;;;4.70;;
19664;SDS011;9980;51.020;7.772;2023-06-14T01:42:23;6.07;;;5.50;;
19664;SDS011;9980;51.020;7.772;2023-06-14T01:44:51;7.50;;;6.80;;
19664;SDS011;9980;51.020;7.772;2023-06-14T01:47:20;7.60;;;6.93;;
19664;SDS011;9980;51.020;7.772;2023-06-14T01:49:48;6.87;;;6.10;;
19664;SDS011;9980;51.020;7.772;2023-06-14T01:52:15;6.40;;;5.80;;
19664;SDS011;9980;51.020;7.772;2023-06-14T01:54:42;5.67;;;5.17;;
19664;SDS011;9980;51.020;7.772;2023-06-14T01:57:09;6.70;;;5.60;;
19664;SDS011;9980;51.020;7.772;2023-06-14T01:59:37;6.83;;;6.23;;
19664;SDS011;9980;51.020;7.772;2023-06-14T02:02:04;8.23;;;7.43;;
19664;SDS011;9980;51.020;7.772;2023-06-14T02:04:31;7.37;;;6.67;;
19664;SDS011;9980;51.020;7.772;2023-06-14T02:06:58;6.97;;;6.30;;
19664;SDS011;9980;51.020;7.772;2023-06-14T02:09:26;6.30;;;5.70;;
19664;SDS011;9980;51.020;7.772;2023-06-14T02:12:01;8.30;;;7.60;;
19664;SDS011;9980;51.020;7.772;2023-06-14T02:14:28;8.43;;;6.97;;
19664;SDS011;9980;51.020;7.772;2023-06-14T02:16:55;7.17;;;6.47;;
19664;SDS011;9980;51.020;7.772;2023-06-14T02:19:23;8.20;;;6.40;;
19664;SDS011;9980;51.020;7.772;2023-06-14T02:21:50;5.10;;;4.70;;
19664;SDS011;9980;51.020;7.772;2023-06-14T02:24:17;6.77;;;5.57;;
19664;SDS011;9980;51.020;7.772;2023-06-14T02:26:44;5.70;;;5.20;;
19664;SDS011;9980;51.020;7.772;2023-06-14T02:29:13;5.50;;;5.00;;
19664;SDS011;9980;51.020;7.772;2023-06-14T02:31:42;4.27;;;3.97;;
19664;SDS011;9980;51.020;7.772;2023-06-14T02:34:09;4.70;;;4.27;;
19664;SDS011;9980;51.020;7.772;2023-06-14T02:36:36;4.40;;;4.10;;
19664;SDS011;9980;51.020;7.772;2023-06-14T02:39:08;6.33;;;5.67;;
19664;SDS011;9980;51.020;7.772;2023-06-14T02:41:37;6.50;;;5.90;;
19664;SDS011;9980;51.020;7.772;2023-06-14T02:44:05;6.60;;;5.90;;
19664;SDS011;9980;51.020;7.772;2023-06-14T02:46:33;6.83;;;6.27;;
19664;SDS011;9980;51.020;7.772;2023-06-14T02:49:00;6.47;;;5.90;;
19664;SDS011;9980;51.020;7.772;2023-06-14T02:51:27;4.87;;;4.37;;
19664;SDS011;9980;51.020;7.772;2023-06-14T02:53:54;4.77;;;4.37;;
19664;SDS011;9980;51.020;7.772;2023-06-14T02:56:21;5.70;;;5.20;;
19664;SDS011;9980;51.020;7.772;2023-06-14T02:58:48;4.10;;;3.80;;
19664;SDS011;9980;51.020;7.772;2023-06-14T03:01:17;9.63;;;5.17;;
19664;SDS011;9980;51.020;7.772;2023-06-14T03:03:45;5.87;;;5.37;;
19664;SDS011;9980;51.020;7.772;2023-06-14T03:06:13;5.53;;;5.03;;
19664;SDS011;9980;51.020;7.772;2023-06-14T03:08:44;4.67;;;4.17;;
19664;SDS011;9980;51.020;7.772;2023-06-14T03:11:14;6.60;;;5.97;;
19664;SDS011;9980;51.020;7.772;2023-06-14T03:13:43;4.80;;;4.40;;
19664;SDS011;9980;51.020;7.772;2023-06-14T03:16:11;6.07;;;5.00;;
19664;SDS011;9980;51.020;7.772;2023-06-14T03:18:39;4.87;;;4.57;;
19664;SDS011;9980;51.020;7.772;2023-06-14T03:21:06;6.37;;;5.77;;
19664;SDS011;9980;51.020;7.772;2023-06-14T03:23:37;6.20;;;5.60;;
19664;SDS011;9980;51.020;7.772;2023-06-14T03:26:04;7.70;;;6.20;;
19664;SDS011;9980;51.020;7.772;2023-06-14T03:28:32;6.30;;;5.73;;
19664;SDS011;9980;51.020;7.772;2023-06-14T03:30:59;4.97;;;4.57;;
19664;SDS011;9980;51.020;7.772;2023-06-14T03:33:29;6.63;;;6.03;;
19664;SDS011;9980;51.020;7.772;2023-06-14T03:35:57;5.83;;;5.33;;
19664;SDS011;9980;51.020;7.772;2023-06-14T03:38:25;5.57;;;5.07;;
19664;SDS011;9980;51.020;7.772;2023-06-14T03:40:52;6.43;;;5.83;;
19664;SDS011;9980;51.020;7.772;2023-06-14T03:43:19;6.10;;;5.60;;
19664;SDS011;9980;51.020;7.772;2023-06-14T03:45:46;6.53;;;5.90;;
19664;SDS011;9980;51.020;7.772;2023-06-14T03:48:13;5.20;;;4.80;;
19664;SDS011;9980;51.020;7.772;2023-06-14T03:50:40;5.47;;;4.87;;
19664;SDS011;9980;51.020;7.772;2023-06-14T03:53:09;6.53;;;6.03;;
19664;SDS011;9980;51.020;7.772;2023-06-14T03:55:39;5.23;;;4.83;;
19664;SDS011;9980;51.020;7.772;2023-06-14T03:58:24;5.83;;;5.00;;
19664;SDS011;9980;51.020;7.772;2023-06-14T04:00:51;7.07;;;6.47;;
19664;SDS011;9980;51.020;7.772;2023-06-14T04:03:18;6.50;;;6.00;;
19664;SDS011;9980;51.020;7.772;2023-06-14T04:05:46;8.00;;;6.40;;
19664;SDS011;9980;51.020;7.772;2023-06-14T04:08:17;6.37;;;5.83;;
19664;SDS011;9980;51.020;7.772;2023-06-14T04:10:45;7.27;;;5.70;;
19664;SDS011;9980;51.020;7.772;2023-06-14T04:13:13;5.20;;;4.73;;
19664;SDS011;9980;51.020;7.772;2023-06-14T04:15:41;6.17;;;5.60;;
19664;SDS011;9980;51.020;7.772;2023-06-14T04:18:12;7.53;;;6.73;;
19664;SDS011;9980;51.020;7.772;2023-06-14T04:20:39;7.73;;;7.03;;
19664;SDS011;9980;51.020;7.772;2023-06-14T04:23:14;7.30;;;6.70;;
19664;SDS011;9980;51.020;7.772;2023-06-14T04:25:44;7.70;;;7.00;;
19664;SDS011;9980;51.020;7.772;2023-06-14T04:28:13;7.17;;;6.47;;
19664;SDS011;9980;51.020;7.772;2023-06-14T04:30:45;7.10;;;6.50;;
19664;SDS011;9980;51.020;7.772;2023-06-14T04:33:14;7.40;;;6.77;;
19664;SDS011;9980;51.020;7.772;2023-06-14T04:35:42;8.13;;;7.27;;
19664;SDS011;9980;51.020;7.772;2023-06-14T04:38:09;8.63;;;7.43;;
19664;SDS011;9980;51.020;7.772;2023-06-14T04:40:37;8.50;;;7.80;;
19664;SDS011;9980;51.020;7.772;2023-06-14T04:43:15;8.83;;;7.97;;
19664;SDS011;9980;51.020;7.772;2023-06-14T04:45:44;8.53;;;7.70;;
19664;SDS011;9980;51.020;7.772;2023-06-14T04:48:13;7.67;;;7.00;;
19664;SDS011;9980;51.020;7.772;2023-06-14T04:50:40;7.80;;;7.10;;
19664;SDS011;9980;51.020;7.772;2023-06-14T04:53:07;10.67;;;8.00;;
19664;SDS011;9980;51.020;7.772;2023-06-14T04:55:35;8.70;;;7.90;;
19664;SDS011;9980;51.020;7.772;2023-06-14T04:58:03;7.37;;;6.77;;
19664;SDS011;9980;51.020;7.772;2023-06-14T05:00:31;7.03;;;6.33;;
19664;SDS011;9980;51.020;7.772;2023-06-14T05:02:58;10.13;;;7.70;;
19664;SDS011;9980;51.020;7.772;2023-06-14T05:05:25;7.63;;;6.93;;
19664;SDS011;9980;51.020;7.772;2023-06-14T05:07:52;7.77;;;7.07;;
19664;SDS011;9980;51.020;7.772;2023-06-14T05:10:19;7.60;;;7.00;;
19664;SDS011;9980;51.020;7.772;2023-06-14T05:12:46;8.00;;;7.30;;
19664;SDS011;9980;51.020;7.772;2023-06-14T05:15:15;8.70;;;6.97;;
19664;SDS011;9980;51.020;7.772;2023-06-14T05:17:43;11.07;;;7.13;;
19664;SDS011;9980;51.020;7.772;2023-06-14T05:20:14;7.73;;;6.73;;
19664;SDS011;9980;51.020;7.772;2023-06-14T05:22:41;8.63;;;6.87;;
19664;SDS011;9980;51.020;7.772;2023-06-14T05:25:08;7.87;;;6.50;;
19664;SDS011;9980;51.020;7.772;2023-06-14T05:27:35;6.77;;;6.07;;
19664;SDS011;9980;51.020;7.772;2023-06-14T05:30:03;6.30;;;5.70;;
19664;SDS011;9980;51.020;7.772;2023-06-14T05:32:31;6.37;;;5.87;;
19664;SDS011;9980;51.020;7.772;2023-06-14T05:34:58;6.77;;;5.23;;
19664;SDS011;9980;51.020;7.772;2023-06-14T05:37:25;5.60;;;5.10;;
19664;SDS011;9980;51.020;7.772;2023-06-14T05:39:52;5.67;;;5.17;;
19664;SDS011;9980;51.020;7.772;2023-06-14T05:42:19;6.03;;;5.13;;
19664;SDS011;9980;51.020;7.772;2023-06-14T05:44:46;6.00;;;4.90;;
19664;SDS011;9980;51.020;7.772;2023-06-14T05:47:13;5.40;;;5.00;;
19664;SDS011;9980;51.020;7.772;2023-06-14T05:49:40;5.47;;;4.93;;
19664;SDS011;9980;51.020;7.772;2023-06-14T05:52:07;4.70;;;4.30;;
19664;SDS011;9980;51.020;7.772;2023-06-14T05:54:34;7.27;;;4.90;;
19664;SDS011;9980;51.020;7.772;2023-06-14T05:57:01;4.50;;;4.10;;
19664;SDS011;9980;51.020;7.772;2023-06-14T05:59:29;6.17;;;4.63;;
19664;SDS011;9980;51.020;7.772;2023-06-14T06:01:56;8.60;;;4.13;;
19664;SDS011;9980;51.020;7.772;2023-06-14T06:04:23;4.50;;;4.10;;
19664;SDS011;9980;51.020;7.772;2023-06-14T06:06:50;6.23;;;3.60;;
19664;SDS011;9980;51.020;7.772;2023-06-14T06:09:17;4.20;;;3.70;;
19664;SDS011;9980;51.020;7.772;2023-06-14T06:11:45;3.70;;;3.40;;
19664;SDS011;9980;51.020;7.772;2023-06-14T06:14:19;6.80;;;3.60;;
19664;SDS011;9980;51.020;7.772;2023-06-14T06:16:46;4.20;;;3.37;;
19664;SDS011;9980;51.020;7.772;2023-06-14T06:19:13;4.13;;;3.70;;
19664;SDS011;9980;51.020;7.772;2023-06-14T06:21:40;3.93;;;2.97;;
19664;SDS011;9980;51.020;7.772;2023-06-14T06:24:07;3.20;;;2.90;;
19664;SDS011;9980;51.020;7.772;2023-06-14T06:26:34;6.33;;;3.53;;
19664;SDS011;9980;51.020;7.772;2023-06-14T06:29:01;3.93;;;3.07;;
19664;SDS011;9980;51.020;7.772;2023-06-14T06:31:28;3.87;;;2.63;;
19664;SDS011;9980;51.020;7.772;2023-06-14T06:33:55;5.47;;;3.63;;
19664;SDS011;9980;51.020;7.772;2023-06-14T06:36:22;3.53;;;2.83;;
19664;SDS011;9980;51.020;7.772;2023-06-14T06:38:50;3.43;;;2.60;;
19664;SDS011;9980;51.020;7.772;2023-06-14T06:41:17;4.17;;;2.97;;
19664;SDS011;9980;51.020;7.772;2023-06-14T06:43:44;4.67;;;3.10;;
19664;SDS011;9980;51.020;7.772;2023-06-14T06:46:15;4.00;;;2.80;;
19664;SDS011;9980;51.020;7.772;2023-06-14T06:48:44;3.17;;;2.40;;
19664;SDS011;9980;51.020;7.772;2023-06-14T06:51:11;5.13;;;2.67;;
19664;SDS011;9980;51.020;7.772;2023-06-14T06:53:39;2.87;;;2.67;;
19664;SDS011;9980;51.020;7.772;2023-06-14T06:56:09;3.00;;;2.40;;
19664;SDS011;9980;51.020;7.772;2023-06-14T06:58:36;3.30;;;2.97;;
19664;SDS011;9980;51.020;7.772;2023-06-14T07:01:03;3.23;;;2.30;;
19664;SDS011;9980;51.020;7.772;2023-06-14T07:03:30;2.80;;;2.60;;
19664;SDS011;9980;51.020;7.772;2023-06-14T07:05:57;2.80;;;2.33;;
19664;SDS011;9980;51.020;7.772;2023-06-14T07:08:25;2.20;;;2.07;;
19664;SDS011;9980;51.020;7.772;2023-06-14T07:10:52;1.93;;;1.83;;
19664;SDS011;9980;51.020;7.772;2023-06-14T07:13:19;3.27;;;2.20;;
19664;SDS011;9980;51.020;7.772;2023-06-14T07:15:45;2.20;;;2.00;;
19664;SDS011;9980;51.020;7.772;2023-06-14T07:18:13;4.10;;;1.97;;
19664;SDS011;9980;51.020;7.772;2023-06-14T07:20:42;3.10;;;2.63;;
19664;SDS011;9980;51.020;7.772;2023-06-14T07:23:09;2.37;;;2.17;;
19664;SDS011;9980;51.020;7.772;2023-06-14T07:25:37;2.57;;;1.97;;
19664;SDS011;9980;51.020;7.772;2023-06-14T07:28:04;3.83;;;1.60;;
19664;SDS011;9980;51.020;7.772;2023-06-14T07:30:31;1.80;;;1.70;;
19664;SDS011;9980;51.020;7.772;2023-06-14T07:32:58;2.37;;;1.80;;
19664;SDS011;9980;51.020;7.772;2023-06-14T07:35:25;2.13;;;1.93;;
19664;SDS011;9980;51.020;7.772;2023-06-14T07:37:52;2.53;;;1.80;;
19664;SDS011;9980;51.020;7.772;2023-06-14T07:40:19;4.20;;;1.77;;
19664;SDS011;9980;51.020;7.772;2023-06-14T07:42:46;2.27;;;2.07;;
19664;SDS011;9980;51.020;7.772;2023-06-14T07:45:13;4.23;;;1.57;;
19664;SDS011;9980;51.020;7.772;2023-06-14T07:47:41;2.13;;;1.70;;
19664;SDS011;9980;51.020;7.772;2023-06-14T07:50:08;4.87;;;1.50;;
19664;SDS011;9980;51.020;7.772;2023-06-14T07:52:37;2.17;;;1.73;;
19664;SDS011;9980;51.020;7.772;2023-06-14T07:55:04;2.10;;;1.90;;
19664;SDS011;9980;51.020;7.772;2023-06-14T07:57:31;3.10;;;1.80;;
19664;SDS011;9980;51.020;7.772;2023-06-14T07:59:58;3.27;;;1.63;;
19664;SDS011;9980;51.020;7.772;2023-06-14T08:02:25;2.50;;;1.83;;
19664;SDS011;9980;51.020;7.772;2023-06-14T08:04:52;2.73;;;2.10;;
19664;SDS011;9980;51.020;7.772;2023-06-14T08:07:20;2.33;;;1.53;;
19664;SDS011;9980;51.020;7.772;2023-06-14T08:09:47;1.50;;;1.40;;
19664;SDS011;9980;51.020;7.772;2023-06-14T08:12:14;1.73;;;1.40;;
19664;SDS011;9980;51.020;7.772;2023-06-14T08:14:42;2.90;;;1.75;;
19664;SDS011;9980;51.020;7.772;2023-06-14T08:17:09;4.78;;;1.55;;
19664;SDS011;9980;51.020;7.772;2023-06-14T08:19:36;1.77;;;1.67;;
19664;SDS011;9980;51.020;7.772;2023-06-14T08:22:03;2.80;;;1.90;;
19664;SDS011;9980;51.020;7.772;2023-06-14T08:24:31;1.60;;;1.50;;
19664;SDS011;9980;51.020;7.772;2023-06-14T08:26:58;1.90;;;1.80;;
19664;SDS011;9980;51.020;7.772;2023-06-14T08:29:27;1.75;;;1.40;;
19664;SDS011;9980;51.020;7.772;2023-06-14T08:31:56;3.57;;;1.60;;
19664;SDS011;9980;51.020;7.772;2023-06-14T08:34:24;1.55;;;1.45;;
19664;SDS011;9980;51.020;7.772;2023-06-14T08:36:51;2.72;;;1.50;;
19664;SDS011;9980;51.020;7.772;2023-06-14T08:39:18;1.75;;;1.65;;
19664;SDS011;9980;51.020;7.772;2023-06-14T08:41:46;2.55;;;2.00;;
19664;SDS011;9980;51.020;7.772;2023-06-14T08:44:17;4.55;;;1.70;;
19664;SDS011;9980;51.020;7.772;2023-06-14T08:46:44;3.03;;;1.60;;
19664;SDS011;9980;51.020;7.772;2023-06-14T08:49:15;3.05;;;1.70;;
19664;SDS011;9980;51.020;7.772;2023-06-14T08:51:43;1.63;;;1.52;;
19664;SDS011;9980;51.020;7.772;2023-06-14T08:54:11;3.10;;;1.65;;
19664;SDS011;9980;51.020;7.772;2023-06-14T08:56:41;1.67;;;1.58;;
19664;SDS011;9980;51.020;7.772;2023-06-14T08:59:10;2.92;;;1.35;;
19664;SDS011;9980;51.020;7.772;2023-06-14T09:01:38;1.95;;;1.75;;
19664;SDS011;9980;51.020;7.772;2023-06-14T09:04:09;1.73;;;1.25;;
19664;SDS011;9980;51.020;7.772;2023-06-14T09:06:37;2.50;;;1.27;;
19664;SDS011;9980;51.020;7.772;2023-06-14T09:09:04;2.22;;;1.30;;
19664;SDS011;9980;51.020;7.772;2023-06-14T09:11:31;2.00;;;1.50;;
19664;SDS011;9980;51.020;7.772;2023-06-14T09:13:58;1.45;;;1.27;;
19664;SDS011;9980;51.020;7.772;2023-06-14T09:16:25;2.72;;;1.20;;
19664;SDS011;9980;51.020;7.772;2023-06-14T09:18:53;1.95;;;1.10;;
19664;SDS011;9980;51.020;7.772;2023-06-14T09:21:20;1.20;;;1.10;;
19664;SDS011;9980;51.020;7.772;2023-06-14T09:23:47;1.55;;;1.15;;
19664;SDS011;9980;51.020;7.772;2023-06-14T09:26:16;1.20;;;1.10;;
19664;SDS011;9980;51.020;7.772;2023-06-14T09:28:50;2.28;;;1.33;;
19664;SDS011;9980;51.020;7.772;2023-06-14T09:31:17;1.25;;;1.10;;
19664;SDS011;9980;51.020;7.772;2023-06-14T09:33:49;4.75;;;1.38;;
19664;SDS011;9980;51.020;7.772;2023-06-14T09:36:18;1.70;;;1.00;;
19664;SDS011;9980;51.020;7.772;2023-06-14T09:38:58;1.13;;;1.00;;
19664;SDS011;9980;51.020;7.772;2023-06-14T09:41:35;1.20;;;1.10;;
19664;SDS011;9980;51.020;7.772;2023-06-14T09:44:04;9.55;;;1.05;;
19664;SDS011;9980;51.020;7.772;2023-06-14T09:46:39;1.48;;;1.02;;
19664;SDS011;9980;51.020;7.772;2023-06-14T09:49:06;1.17;;;1.10;;
19664;SDS011;9980;51.020;7.772;2023-06-14T09:51:36;1.10;;;0.95;;
19664;SDS011;9980;51.020;7.772;2023-06-14T09:54:11;1.25;;;1.00;;
19664;SDS011;9980;51.020;7.772;2023-06-14T09:56:44;2.42;;;1.00;;
19664;SDS011;9980;51.020;7.772;2023-06-14T09:59:13;1.20;;;1.10;;
19664;SDS011;9980;51.020;7.772;2023-06-14T10:01:47;1.88;;;1.00;;
19664;SDS011;9980;51.020;7.772;2023-06-14T10:04:16;1.75;;;1.00;;
19664;SDS011;9980;51.020;7.772;2023-06-14T10:06:48;3.03;;;1.20;;
19664;SDS011;9980;51.020;7.772;2023-06-14T10:09:17;4.85;;;1.08;;
19664;SDS011;9980;51.020;7.772;2023-06-14T10:11:45;2.53;;;0.90;;
19664;SDS011;9980;51.020;7.772;2023-06-14T10:14:12;1.08;;;0.98;;
19664;SDS011;9980;51.020;7.772;2023-06-14T10:19:18;1.10;;;1.00;;
19664;SDS011;9980;51.020;7.772;2023-06-14T10:22:10;5.95;;;0.90;;
19664;SDS011;9980;51.020;7.772;2023-06-14T10:24:45;1.38;;;1.10;;
19664;SDS011;9980;51.020;7.772;2023-06-14T10:27:14;1.02;;;1.00;;
19664;SDS011;9980;51.020;7.772;2023-06-14T10:32:20;2.28;;;0.98;;
19664;SDS011;9980;51.020;7.772;2023-06-14T10:34:56;1.52;;;0.90;;
19664;SDS011;9980;51.020;7.772;2023-06-14T10:37:26;1.73;;;1.27;;
19664;SDS011;9980;51.020;7.772;2023-06-14T10:39:54;2.72;;;0.98;;
19664;SDS011;9980;51.020;7.772;2023-06-14T10:42:21;1.92;;;1.23;;
19664;SDS011;9980;51.020;7.772;2023-06-14T10:44:55;2.17;;;1.20;;
19664;SDS011;9980;51.020;7.772;2023-06-14T10:47:31;1.50;;;1.40;;
19664;SDS011;9980;51.020;7.772;2023-06-14T10:50:05;3.50;;;1.20;;
19664;SDS011;9980;51.020;7.772;2023-06-14T10:52:37;2.38;;;1.20;;
19664;SDS011;9980;51.020;7.772;2023-06-14T10:55:12;3.28;;;1.30;;
19664;SDS011;9980;51.020;7.772;2023-06-14T10:57:52;4.45;;;1.40;;
19664;SDS011;9980;51.020;7.772;2023-06-14T11:00:25;4.00;;;1.42;;
19664;SDS011;9980;51.020;7.772;2023-06-14T11:03:16;4.20;;;1.50;;
19664;SDS011;9980;51.020;7.772;2023-06-14T11:06:19;2.92;;;1.13;;
19664;SDS011;9980;51.020;7.772;2023-06-14T11:12:26;2.97;;;1.52;;
19664;SDS011;9980;51.020;7.772;2023-06-14T11:14:59;2.67;;;1.50;;
19664;SDS011;9980;51.020;7.772;2023-06-14T11:17:26;1.67;;;1.50;;
19664;SDS011;9980;51.020;7.772;2023-06-14T11:20:09;2.65;;;1.63;;
19664;SDS011;9980;51.020;7.772;2023-06-14T11:22:45;4.22;;;1.70;;
19664;SDS011;9980;51.020;7.772;2023-06-14T11:25:13;3.92;;;1.60;;
19664;SDS011;9980;51.020;7.772;2023-06-14T11:27:42;2.60;;;1.88;;
19664;SDS011;9980;51.020;7.772;2023-06-14T11:30:10;2.70;;;1.45;;
19664;SDS011;9980;51.020;7.772;2023-06-14T11:32:37;3.10;;;1.55;;
19664;SDS011;9980;51.020;7.772;2023-06-14T11:35:06;1.75;;;1.63;;
19664;SDS011;9980;51.020;7.772;2023-06-14T11:37:36;1.90;;;1.55;;
19664;SDS011;9980;51.020;7.772;2023-06-14T11:40:07;4.25;;;1.80;;
19664;SDS011;9980;51.020;7.772;2023-06-14T11:42:36;4.22;;;1.70;;
19664;SDS011;9980;51.020;7.772;2023-06-14T11:45:07;3.00;;;1.73;;
19664;SDS011;9980;51.020;7.772;2023-06-14T11:47:38;2.67;;;1.38;;
19664;SDS011;9980;51.020;7.772;2023-06-14T11:50:06;2.30;;;1.60;;
19664;SDS011;9980;51.020;7.772;2023-06-14T11:52:36;7.40;;;1.70;;
19664;SDS011;9980;51.020;7.772;2023-06-14T11:55:04;2.00;;;1.60;;
19664;SDS011;9980;51.020;7.772;2023-06-14T11:57:35;3.90;;;1.98;;
19664;SDS011;9980;51.020;7.772;2023-06-14T12:00:03;2.17;;;1.60;;
19664;SDS011;9980;51.020;7.772;2023-06-14T12:02:38;4.20;;;1.70;;
19664;SDS011;9980;51.020;7.772;2023-06-14T12:05:07;3.08;;;1.40;;
19664;SDS011;9980;51.020;7.772;2023-06-14T12:07:37;1.55;;;1.45;;
19664;SDS011;9980;51.020;7.772;2023-06-14T12:10:06;2.40;;;1.52;;
19664;SDS011;9980;51.020;7.772;2023-06-14T12:12:35;1.40;;;1.30;;
19664;SDS011;9980;51.020;7.772;2023-06-14T12:15:04;1.60;;;1.50;;
19664;SDS011;9980;51.020;7.772;2023-06-14T12:18:06;3.30;;;1.40;;
19664;SDS011;9980;51.020;7.772;2023-06-14T12:20:34;4.35;;;1.83;;
19664;SDS011;9980;51.020;7.772;2023-06-14T12:23:03;2.38;;;1.30;;
19664;SDS011;9980;51.020;7.772;2023-06-14T12:25:34;4.13;;;1.48;;
19664;SDS011;9980;51.020;7.772;2023-06-14T12:28:08;2.13;;;1.40;;
19664;SDS011;9980;51.020;7.772;2023-06-14T12:30:36;3.90;;;1.60;;
19664;SDS011;9980;51.020;7.772;2023-06-14T12:33:04;5.15;;;1.50;;
19664;SDS011;9980;51.020;7.772;2023-06-14T12:35:32;1.52;;;1.42;;
19664;SDS011;9980;51.020;7.772;2023-06-14T12:38:00;3.58;;;1.95;;
19664;SDS011;9980;51.020;7.772;2023-06-14T12:40:26;3.35;;;1.52;;
19664;SDS011;9980;51.020;7.772;2023-06-14T12:42:54;2.75;;;1.50;;
19664;SDS011;9980;51.020;7.772;2023-06-14T12:45:21;2.60;;;1.50;;
19664;SDS011;9980;51.020;7.772;2023-06-14T12:47:49;3.83;;;1.60;;
19664;SDS011;9980;51.020;7.772;2023-06-14T12:50:16;3.05;;;1.55;;
19664;SDS011;9980;51.020;7.772;2023-06-14T12:52:43;2.30;;;1.55;;
19664;SDS011;9980;51.020;7.772;2023-06-14T12:55:11;4.88;;;1.75;;
19664;SDS011;9980;51.020;7.772;2023-06-14T12:57:37;1.52;;;1.30;;
19664;SDS011;9980;51.020;7.772;2023-06-14T13:00:05;2.90;;;1.90;;
19664;SDS011;9980;51.020;7.772;2023-06-14T13:02:34;3.83;;;1.50;;
19664;SDS011;9980;51.020;7.772;2023-06-14T13:05:01;1.65;;;1.50;;
19664;SDS011;9980;51.020;7.772;2023-06-14T13:07:30;2.13;;;1.63;;
19664;SDS011;9980;51.020;7.772;2023-06-14T13:09:57;2.58;;;1.40;;
19664;SDS011;9980;51.020;7.772;2023-06-14T13:12:24;2.20;;;1.40;;
19664;SDS011;9980;51.020;7.772;2023-06-14T13:14:51;2.08;;;1.80;;
19664;SDS011;9980;51.020;7.772;2023-06-14T13:17:18;1.40;;;1.30;;
19664;SDS011;9980;51.020;7.772;2023-06-14T13:19:45;2.40;;;1.25;;
19664;SDS011;9980;51.020;7.772;2023-06-14T13:22:11;2.40;;;1.70;;
19664;SDS011;9980;51.020;7.772;2023-06-14T13:24:38;4.18;;;1.75;;
19664;SDS011;9980;51.020;7.772;2023-06-14T13:27:05;3.00;;;1.50;;
19664;SDS011;9980;51.020;7.772;2023-06-14T13:29:33;6.05;;;1.58;;
19664;SDS011;9980;51.020;7.772;2023-06-14T13:32:03;2.58;;;1.70;;
19664;SDS011;9980;51.020;7.772;2023-06-14T13:34:31;2.13;;;1.67;;
19664;SDS011;9980;51.020;7.772;2023-06-14T13:36:57;2.85;;;1.50;;
19664;SDS011;9980;51.020;7.772;2023-06-14T13:39:27;2.10;;;1.73;;
19664;SDS011;9980;51.020;7.772;2023-06-14T13:41:54;5.03;;;1.85;;
19664;SDS011;9980;51.020;7.772;2023-06-14T13:44:21;1.60;;;1.50;;
19664;SDS011;9980;51.020;7.772;2023-06-14T13:46:48;2.00;;;1.50;;
19664;SDS011;9980;51.020;7.772;2023-06-14T13:49:15;2.55;;;1.77;;
19664;SDS011;9980;51.020;7.772;2023-06-14T13:51:42;3.30;;;1.73;;
19664;SDS011;9980;51.020;7.772;2023-06-14T13:54:11;1.60;;;1.50;;
19664;SDS011;9980;51.020;7.772;2023-06-14T13:56:41;4.45;;;1.85;;
19664;SDS011;9980;51.020;7.772;2023-06-14T13:59:08;1.95;;;1.60;;
19664;SDS011;9980;51.020;7.772;2023-06-14T14:01:35;4.80;;;1.83;;
19664;SDS011;9980;51.020;7.772;2023-06-14T14:04:02;3.30;;;1.70;;
19664;SDS011;9980;51.020;7.772;2023-06-14T14:06:31;2.42;;;2.00;;
19664;SDS011;9980;51.020;7.772;2023-06-14T14:08:58;1.80;;;1.70;;
19664;SDS011;9980;51.020;7.772;2023-06-14T14:11:25;3.30;;;1.90;;
19664;SDS011;9980;51.020;7.772;2023-06-14T14:13:52;2.20;;;1.55;;
19664;SDS011;9980;51.020;7.772;2023-06-14T14:16:19;2.75;;;1.50;;
19664;SDS011;9980;51.020;7.772;2023-06-14T14:18:46;2.08;;;1.88;;
19664;SDS011;9980;51.020;7.772;2023-06-14T14:21:13;4.03;;;1.80;;
19664;SDS011;9980;51.020;7.772;2023-06-14T14:23:40;2.08;;;1.73;;
19664;SDS011;9980;51.020;7.772;2023-06-14T14:26:07;3.03;;;1.98;;
19664;SDS011;9980;51.020;7.772;2023-06-14T14:28:34;2.75;;;2.08;;
19664;SDS011;9980;51.020;7.772;2023-06-14T14:31:01;2.10;;;1.90;;
19664;SDS011;9980;51.020;7.772;2023-06-14T14:33:28;1.65;;;1.55;;
19664;SDS011;9980;51.020;7.772;2023-06-14T14:35:55;2.40;;;1.88;;
19664;SDS011;9980;51.020;7.772;2023-06-14T14:38:22;2.70;;;1.92;;
19664;SDS011;9980;51.020;7.772;2023-06-14T14:40:49;2.13;;;1.92;;
19664;SDS011;9980;51.020;7.772;2023-06-14T14:43:16;2.58;;;2.20;;
19664;SDS011;9980;51.020;7.772;2023-06-14T14:45:43;3.42;;;1.95;;
19664;SDS011;9980;51.020;7.772;2023-06-14T14:48:10;1.80;;;1.70;;
19664;SDS011;9980;51.020;7.772;2023-06-14T14:50:37;2.63;;;2.20;;
19664;SDS011;9980;51.020;7.772;2023-06-14T14:53:05;2.47;;;1.80;;
19664;SDS011;9980;51.020;7.772;2023-06-14T14:55:32;2.13;;;2.00;;
19664;SDS011;9980;51.020;7.772;2023-06-14T14:58:02;2.05;;;1.95;;
19664;SDS011;9980;51.020;7.772;2023-06-14T15:00:29;2.63;;;2.08;;
19664;SDS011;9980;51.020;7.772;2023-06-14T15:02:56;3.72;;;1.88;;
19664;SDS011;9980;51.020;7.772;2023-06-14T15:05:23;3.40;;;1.90;;
19664;SDS011;9980;51.020;7.772;2023-06-14T15:07:50;2.17;;;1.90;;
19664;SDS011;9980;51.020;7.772;2023-06-14T15:10:17;8.43;;;2.50;;
19664;SDS011;9980;51.020;7.772;2023-06-14T15:12:44;2.65;;;1.85;;
19664;SDS011;9980;51.020;7.772;2023-06-14T15:15:11;2.70;;;1.98;;
19664;SDS011;9980;51.020;7.772;2023-06-14T15:17:38;4.30;;;2.05;;
19664;SDS011;9980;51.020;7.772;2023-06-14T15:20:06;2.30;;;2.10;;